Huvudsida
METAR-TAF:

METAR-TAF

Flygplatser :

Sørkjosens flygplats

Sørkjosen, Norge

latitud: 69-47N, longitud: 020-58E, höjd: 0 m

Aktuellt väderrapport

Denna rapport gjordes för 2 timmar och 19 minuter sedan, klockan 10:50 UTC
Vind 13 kt från väst, varierande mellan syd och väst/sydväst
Temperatur 8°C
Fuktighet 49%
Tryck 985 hPa
Sikt 10 km eller mer
Spridda moln på en höjd av 4000 ft
Spridda moln på en höjd av 6500 ft

METAR: ENSR 221050Z 20008KT 160V250 9999 SCT040 SCT065 08/M02 Q0985 WIND 1119FT 27013KT 180V240

Tid: 15:09 (13:09 UTC)


TAF: saknas

Aktuella väderrapporter och prognoser från 4000 flygplatser (METAR- och TAF-rapporter).

De tillgängliga stationerna syns som gula och röda prickar på kartan.

För musen över prickarna för att se namnen på stationerna.

Klicka sedan för att få väderrapporter och prognoser.

För att ändra kartan: Klicka på de gröna knapparna med ett svart kors på för att zooma in; den gröna knappen med ett streck på för att zooma ut; eller på de gröna pilarna för angränsande kartor.


METAR-TAF: